Observation data for Dora on 12/08/2018      Previous  Date       Current Mesonet Observations  Soil Data  Daily Summary Page  Observations in Plain Language
KDR1 080600Z 06005KT M01/M03 A3026 RMK A01 T10141025  RH  093%=      5-min Rain = 0
KDR1 080605Z 06004KT M01/M03 A3026 RMK A01 T10141025  RH  093%=      5-min Rain = 0
KDR1 080610Z 04004KT M01/M02 A3026 RMK A01 T10141024  RH  094%=      5-min Rain = 0
KDR1 080615Z 04003KT M01/M02 A3026 RMK A01 T10141024  RH  094%=      5-min Rain = 0
KDR1 080620Z 04004KT M01/M02 A3026 RMK A01 T10141024  RH  094%=      5-min Rain = 0
KDR1 080625Z 05006KT M02/M03 A3026 RMK A01 T10151025  RH  094%=      5-min Rain = 0
KDR1 080630Z 05005KT M02/M03 A3026 RMK A01 T10161025  RH  094%=      5-min Rain = 0
KDR1 080635Z 07004KT M02/M03 A3026 RMK A01 T10161025  RH  094%=      5-min Rain = 0
KDR1 080640Z 08003KT M02/M03 A3026 RMK A01 T10161025  RH  094%=      5-min Rain = 0
KDR1 080645Z 07003KT M02/M03 A3026 RMK A01 T10161025  RH  094%=      5-min Rain = 0
KDR1 080650Z 06004KT M02/M03 A3026 RMK A01 T10161025  RH  094%=      5-min Rain = 0
KDR1 080655Z 06003KT M02/M02 A3026 RMK A01 T10161024  RH  095%=      5-min Rain = 0
KDR1 080700Z 06004KT M02/M02 A3025 RMK A01 T10161024  RH  095%=      5-min Rain = 0
KDR1 080705Z 06004KT M02/M03 A3026 RMK A01 T10161025  RH  095%=      5-min Rain = 0
KDR1 080710Z 05004KT M02/M02 A3025 RMK A01 T10161024  RH  095%=      5-min Rain = 0
KDR1 080715Z 04004KT M02/M02 A3025 RMK A01 T10161024  RH  095%=      5-min Rain = 0
KDR1 080720Z 03004KT M02/M02 A3025 RMK A01 T10161024  RH  095%=      5-min Rain = 0
KDR1 080725Z 03005KT M02/M03 A3025 RMK A01 T10171025  RH  095%=      5-min Rain = 0
KDR1 080730Z 03005KT M02/M03 A3025 RMK A01 T10171025  RH  095%=      5-min Rain = 0
KDR1 080735Z 03005KT M02/M03 A3025 RMK A01 T10171025  RH  095%=      5-min Rain = 0
KDR1 080740Z 02005KT M02/M03 A3025 RMK A01 T10171025  RH  095%=      5-min Rain = 0
KDR1 080745Z 02005KT M02/M03 A3025 RMK A01 T10181025  RH  095%=      5-min Rain = 0
KDR1 080750Z 02006KT M02/M03 A3024 RMK A01 T10181025  RH  095%=      5-min Rain = 0
KDR1 080755Z 02006KT M02/M03 A3024 RMK A01 T10181025  RH  095%=      5-min Rain = 0
KDR1 080800Z 01006KT M02/M03 A3024 RMK A01 T10181025  RH  095%=      5-min Rain = 0
KDR1 080805Z 01007KT M02/M03 A3024 RMK A01 T10181025  RH  095%=      5-min Rain = 0
KDR1 080810Z 01006KT M02/M03 A3024 RMK A01 T10181025  RH  095%=      5-min Rain = 0
KDR1 080815Z 01006KT M02/M03 A3024 RMK A01 T10181025  RH  095%=      5-min Rain = 0
KDR1 080820Z 01006KT M02/M03 A3024 RMK A01 T10181025  RH  095%=      5-min Rain = 0
KDR1 080825Z 01006KT M02/M03 A3024 RMK A01 T10181025  RH  096%=      5-min Rain = 0
KDR1 080830Z 01005KT M02/M03 A3024 RMK A01 T10181025  RH  096%=      5-min Rain = 0
KDR1 080835Z 01005KT M02/M03 A3024 RMK A01 T10181025  RH  096%=      5-min Rain = 0
KDR1 080840Z 01006KT M02/M03 A3024 RMK A01 T10181025  RH  096%=      5-min Rain = 0
KDR1 080845Z 01006KT M02/M03 A3024 RMK A01 T10181025  RH  096%=      5-min Rain = 0
KDR1 080850Z 01007KT M02/M03 A3024 RMK A01 T10181025  RH  096%=      5-min Rain = 0
KDR1 080855Z 02008KT M02/M03 A3024 RMK A01 T10181025  RH  096%=      5-min Rain = 0
KDR1 080900Z 01008KT M02/M03 A3024 RMK A01 T10181026  RH  096%=      5-min Rain = 0
KDR1 080905Z 02008KT M02/M03 A3024 RMK A01 T10181026  RH  096%=      5-min Rain = 0
KDR1 080910Z 02008KT M02/M03 A3024 RMK A01 T10191026  RH  096%=      5-min Rain = 0
KDR1 080915Z 02008KT M02/M03 A3024 RMK A01 T10191026  RH  096%=      5-min Rain = 0
KDR1 080920Z 02007KT M02/M03 A3024 RMK A01 T10201027  RH  096%=      5-min Rain = 0
KDR1 080925Z 02008KT M02/M03 A3024 RMK A01 T10201027  RH  096%=      5-min Rain = 0
KDR1 080930Z 02009KT M02/M03 A3024 RMK A01 T10201027  RH  096%=      5-min Rain = 0
KDR1 080935Z 02010KT M02/M03 A3023 RMK A01 T10211028  RH  096%=      5-min Rain = 0
KDR1 080940Z 02010KT M02/M03 A3023 RMK A01 T10211028  RH  096%=      5-min Rain = 0
KDR1 080945Z 02009KT M02/M03 A3023 RMK A01 T10221029  RH  096%=      5-min Rain = 0
KDR1 080950Z 01009KT M02/M03 A3023 RMK A01 T10221029  RH  096%=      5-min Rain = 0
KDR1 080955Z 01009KT M02/M03 A3023 RMK A01 T10221029  RH  096%=      5-min Rain = 0
KDR1 081000Z 02009KT M02/M03 A3023 RMK A01 T10221029  RH  096%=      5-min Rain = 0
KDR1 081005Z 02009KT M02/M03 A3023 RMK A01 T10221029  RH  096%=      5-min Rain = 0
KDR1 081010Z 02010KT M02/M03 A3023 RMK A01 T10221029  RH  096%=      5-min Rain = 0
KDR1 081015Z 02009KT M02/M03 A3023 RMK A01 T10221029  RH  096%=      5-min Rain = 0
KDR1 081020Z 02009KT M02/M03 A3023 RMK A01 T10221029  RH  096%=      5-min Rain = 0
KDR1 081025Z 02010KT M02/M03 A3023 RMK A01 T10221029  RH  096%=      5-min Rain = 0
KDR1 081030Z 02009KT M02/M03 A3022 RMK A01 T10211028  RH  096%=      5-min Rain = 0
KDR1 081035Z 02009KT M02/M03 A3022 RMK A01 T10211028  RH  096%=      5-min Rain = 0
KDR1 081040Z 01008KT M02/M03 A3022 RMK A01 T10211028  RH  096%=      5-min Rain = 0
KDR1 081045Z 01009KT M02/M03 A3022 RMK A01 T10211028  RH  096%=      5-min Rain = 0
KDR1 081050Z 01009KT M02/M03 A3022 RMK A01 T10201027  RH  096%=      5-min Rain = 0
KDR1 081055Z 01010KT M02/M03 A3022 RMK A01 T10201027  RH  096%=      5-min Rain = 0
KDR1 081100Z 01009KT M02/M03 A3022 RMK A01 T10201027  RH  096%=      5-min Rain = 0
KDR1 081105Z 00010KT M02/M03 A3022 RMK A01 T10191026  RH  096%=      5-min Rain = 0
KDR1 081110Z 00010KT M02/M03 A3022 RMK A01 T10191026  RH  096%=      5-min Rain = 0
KDR1 081115Z 00010KT M02/M03 A3022 RMK A01 T10191025  RH  096%=      5-min Rain = 0
KDR1 081120Z 36010KT M02/M03 A3022 RMK A01 T10191025  RH  096%=      5-min Rain = 0
KDR1 081125Z 36010KT M02/M03 A3021 RMK A01 T10181025  RH  096%=      5-min Rain = 0
KDR1 081130Z 36010KT M02/M02 A3021 RMK A01 T10181024  RH  096%=      5-min Rain = 0
KDR1 081135Z 36009KT M02/M02 A3021 RMK A01 T10181024  RH  096%=      5-min Rain = 0
KDR1 081140Z 35009KT M02/M02 A3021 RMK A01 T10171024  RH  096%=      5-min Rain = 0
KDR1 081145Z 35009KT M02/M02 A3021 RMK A01 T10171023  RH  096%=      5-min Rain = 0
KDR1 081150Z 35009KT M02/M02 A3022 RMK A01 T10161023  RH  096%=      5-min Rain = 0
KDR1 081155Z 36008KT M02/M02 A3022 RMK A01 T10161023  RH  096%=      5-min Rain = 0
KDR1 081200Z 36008KT M02/M02 A3022 RMK A01 T10161022  RH  096%=      5-min Rain = 0
KDR1 081205Z 36007KT M02/M02 A3022 RMK A01 T10161022  RH  096%=      5-min Rain = 0
KDR1 081210Z 36007KT M02/M02 A3023 RMK A01 T10161022  RH  096%=      5-min Rain = 0
KDR1 081215Z 36006KT M02/M02 A3023 RMK A01 T10151021  RH  096%=      5-min Rain = 0
KDR1 081220Z 35006KT M02/M02 A3023 RMK A01 T10151021  RH  097%=      5-min Rain = 0
KDR1 081225Z 00005KT M02/M02 A3023 RMK A01 T10151021  RH  097%=      5-min Rain = 0
KDR1 081230Z 01004KT M02/M02 A3023 RMK A01 T10151021  RH  097%=      5-min Rain = 0
KDR1 081235Z 02003KT M02/M02 A3024 RMK A01 T10151021  RH  097%=      5-min Rain = 0
KDR1 081240Z 02002KT M02/M02 A3024 RMK A01 T10151021  RH  097%=      5-min Rain = 0
KDR1 081245Z 02002KT M02/M02 A3024 RMK A01 T10151021  RH  097%=      5-min Rain = 0
KDR1 081250Z 04002KT M02/M02 A3024 RMK A01 T10151021  RH  097%=      5-min Rain = 0
KDR1 081255Z 05002KT M02/M02 A3024 RMK A01 T10161021  RH  097%=      5-min Rain = 0
KDR1 081300Z 07002KT M02/M02 A3024 RMK A01 T10161022  RH  097%=      5-min Rain = 0
KDR1 081305Z 06002KT M02/M02 A3024 RMK A01 T10161022  RH  097%=      5-min Rain = 0
KDR1 081310Z 08002KT M02/M02 A3025 RMK A01 T10161021  RH  097%=      5-min Rain = 0
KDR1 081315Z 12002KT M02/M02 A3025 RMK A01 T10161022  RH  097%=      5-min Rain = 0
KDR1 081320Z 13002KT M02/M02 A3025 RMK A01 T10161022  RH  097%=      5-min Rain = 0
KDR1 081325Z 13003KT M02/M02 A3025 RMK A01 T10171022  RH  097%=      5-min Rain = 0
KDR1 081330Z 13003KT M02/M02 A3026 RMK A01 T10171023  RH  097%=      5-min Rain = 0
KDR1 081335Z 13004KT M02/M02 A3026 RMK A01 T10171023  RH  097%=      5-min Rain = 0
KDR1 081340Z 13004KT M02/M02 A3026 RMK A01 T10171023  RH  097%=      5-min Rain = 0
KDR1 081345Z 14004KT M02/M02 A3026 RMK A01 T10181023  RH  097%=      5-min Rain = 0
KDR1 081350Z 14004KT M02/M02 A3026 RMK A01 T10181023  RH  097%=      5-min Rain = 0
KDR1 081355Z 15003KT M02/M02 A3026 RMK A01 T10181024  RH  097%=      5-min Rain = 0
KDR1 081400Z 15003KT M02/M02 A3026 RMK A01 T10181024  RH  097%=      5-min Rain = 0
KDR1 081405Z 16004KT M02/M02 A3027 RMK A01 T10181024  RH  097%=      5-min Rain = 0
KDR1 081410Z 16004KT M02/M02 A3027 RMK A01 T10181024  RH  097%=      5-min Rain = 0
KDR1 081415Z 16004KT M02/M02 A3027 RMK A01 T10191024  RH  096%=      5-min Rain = 0
KDR1 081420Z 16003KT M02/M02 A3027 RMK A01 T10181024  RH  096%=      5-min Rain = 0
KDR1 081425Z 17003KT M02/M02 A3027 RMK A01 T10181024  RH  096%=      5-min Rain = 0
KDR1 081430Z 18003KT M02/M02 A3028 RMK A01 T10181024  RH  096%=      5-min Rain = 0
KDR1 081435Z 18003KT M02/M02 A3028 RMK A01 T10181024  RH  096%=      5-min Rain = 0
KDR1 081440Z 18003KT M02/M02 A3028 RMK A01 T10171023  RH  096%=      5-min Rain = 0
KDR1 081445Z 19003KT M02/M02 A3028 RMK A01 T10171023  RH  096%=      5-min Rain = 0
KDR1 081450Z 19003KT M02/M02 A3029 RMK A01 T10171023  RH  096%=      5-min Rain = 0
KDR1 081455Z 19003KT M02/M02 A3029 RMK A01 T10171023  RH  096%=      5-min Rain = 0
KDR1 081500Z 20003KT M02/M02 A3029 RMK A01 T10171023  RH  096%=      5-min Rain = 0
KDR1 081505Z 19003KT M02/M02 A3029 RMK A01 T10161023  RH  096%=      5-min Rain = 0
KDR1 081510Z 18003KT M01/M02 A3029 RMK A01 T10141021  RH  096%=      5-min Rain = 0
KDR1 081515Z 16003KT M01/M02 A3029 RMK A01 T10131020  RH  096%=      5-min Rain = 0
KDR1 081520Z 16003KT M01/M02 A3029 RMK A01 T10121019  RH  095%=      5-min Rain = 0
KDR1 081525Z 16003KT M01/M02 A3029 RMK A01 T10111019  RH  095%=      5-min Rain = 0
KDR1 081530Z 15003KT M01/M02 A3029 RMK A01 T10091018  RH  095%=      5-min Rain = 0
KDR1 081535Z 14003KT M01/M02 A3029 RMK A01 T10091018  RH  094%=      5-min Rain = 0
KDR1 081540Z 14003KT M01/M02 A3029 RMK A01 T10081018  RH  094%=      5-min Rain = 0
KDR1 081545Z 14003KT M01/M02 A3029 RMK A01 T10071018  RH  093%=      5-min Rain = 0
KDR1 081550Z 14003KT M01/M02 A3029 RMK A01 T10071018  RH  093%=      5-min Rain = 0
KDR1 081555Z 14002KT M01/M02 A3029 RMK A01 T10061018  RH  093%=      5-min Rain = 0
KDR1 081600Z 11002KT M01/M02 A3029 RMK A01 T10061018  RH  092%=      5-min Rain = 0
KDR1 081605Z 11002KT M01/M02 A3029 RMK A01 T10051018  RH  091%=      5-min Rain = 0
KDR1 081610Z 11002KT M00/M02 A3029 RMK A01 T10041018  RH  091%=      5-min Rain = 0
KDR1 081615Z 10001KT M00/M02 A3029 RMK A01 T10011017  RH  090%=      5-min Rain = 0
KDR1 081620Z 11001KT 00/M02 A303 RMK A01 T00011015  RH  090%=      5-min Rain = 0
KDR1 081625Z 11000KT 00/02 A303 RMK A01 T00-00-16  RH  090%=      5-min Rain = 0
KDR1 081630Z 00000KT 00/02 A303 RMK A01 T00000-16  RH  090%=      5-min Rain = 0
KDR1 081635Z 11000KT 00/M01 A303 RMK A01 T00041012  RH  090%=      5-min Rain = 0
KDR1 081640Z 11000KT 01/M01 A303 RMK A01 T00081009  RH  090%=      5-min Rain = 0
KDR1 081645Z 11000KT 01/M01 A303 RMK A01 T00101008  RH  089%=      5-min Rain = 0
KDR1 081650Z 11000KT 01/M01 A303 RMK A01 T00101009  RH  088%=      5-min Rain = 0
KDR1 081655Z 12001KT 01/M01 A303 RMK A01 T00071012  RH  088%=      5-min Rain = 0
KDR1 081700Z 13000KT 01/M01 A303 RMK A01 T00061013  RH  088%=      5-min Rain = 0.01
KDR1 081705Z 14000KT 01/M01 A303 RMK A01 T00071013  RH  087%=      5-min Rain = 0.01
KDR1 081710Z 15000KT 02/M01 A3029 RMK A01 T00161008  RH  085%=      5-min Rain = 0.02
KDR1 081715Z 16000KT 02/M01 A3029 RMK A01 T00191009  RH  082%=      5-min Rain = 0.04
KDR1 081720Z 19001KT 02/M01 A3029 RMK A01 T00161014  RH  082%=      5-min Rain = 0.03
KDR1 081725Z 24001KT 02/M01 A3029 RMK A01 T00151014  RH  082%=      5-min Rain = 0.03
KDR1 081730Z 28001KT 02/M01 A3029 RMK A01 T00161014  RH  082%=      5-min Rain = 0.04
KDR1 081735Z 27001KT 02/M02 A3029 RMK A01 T00161015  RH  081%=      5-min Rain = 0.03
KDR1 081740Z 27001KT 02/M01 A3029 RMK A01 T00191013  RH  080%=      5-min Rain = 0.04
KDR1 081745Z 27001KT 03/M01 A3029 RMK A01 T00251012  RH  078%=      5-min Rain = 0.03
KDR1 081750Z 27001KT 03/M01 A3029 RMK A01 T00281014  RH  075%=      5-min Rain = 0.04
KDR1 081755Z 28001KT 03/M01 A3029 RMK A01 T00301014  RH  074%=      5-min Rain = 0.03
KDR1 081800Z 28001KT 03/M01 A3029 RMK A01 T00331013  RH  073%=      5-min Rain = 0.04
KDR1 081805Z 28001KT 03/M02 A3029 RMK A01 T00301015  RH  073%=      5-min Rain = 0.04
KDR1 081810Z 28001KT 03/M01 A3028 RMK A01 T00291013  RH  075%=      5-min Rain = 0.01
KDR1 081815Z 28001KT 03/M01 A3028 RMK A01 T00271014  RH  075%=      5-min Rain = 0
KDR1 081820Z 27001KT 03/M01 A3028 RMK A01 T00251014  RH  076%=      5-min Rain = 0
KDR1 081825Z 27001KT 03/M02 A3028 RMK A01 T00321015  RH  072%=      5-min Rain = 0
KDR1 081830Z 25000KT 05/M02 A3027 RMK A01 T00471018  RH  063%=      5-min Rain = 0
KDR1 081835Z 24001KT 05/M02 A3027 RMK A01 T00451024  RH  061%=      5-min Rain = 0
KDR1 081840Z 24001KT 05/M02 A3027 RMK A01 T00471023  RH  061%=      5-min Rain = 0
KDR1 081845Z 24002KT 05/M02 A3027 RMK A01 T00461024  RH  061%=      5-min Rain = 0
KDR1 081850Z 25001KT 04/M02 A3027 RMK A01 T00401024  RH  064%=      5-min Rain = 0
KDR1 081855Z 26002KT 04/M02 A3027 RMK A01 T00381024  RH  064%=      5-min Rain = 0
KDR1 081900Z 26001KT 04/M02 A3026 RMK A01 T00381024  RH  064%=      5-min Rain = 0
KDR1 081905Z 27001KT 05/M02 A3026 RMK A01 T00461023  RH  062%=      5-min Rain = 0
KDR1 081910Z 24002KT 04/M03 A3026 RMK A01 T00401025  RH  063%=      5-min Rain = 0
KDR1 081915Z 22001KT 04/M03 A3025 RMK A01 T00391025  RH  063%=      5-min Rain = 0
KDR1 081920Z 23002KT 05/M02 A3025 RMK A01 T00471023  RH  061%=      5-min Rain = 0
KDR1 081925Z 20001KT 05/M03 A3025 RMK A01 T00511027  RH  057%=      5-min Rain = 0
KDR1 081930Z 16002KT 05/M03 A3024 RMK A01 T00451028  RH  060%=      5-min Rain = 0
KDR1 081935Z 19002KT 03/M03 A3024 RMK A01 T00341030  RH  063%=      5-min Rain = 0
KDR1 081940Z 22001KT 04/M03 A3024 RMK A01 T00351028  RH  064%=      5-min Rain = 0
KDR1 081945Z 21001KT 04/M03 A3023 RMK A01 T00401028  RH  061%=      5-min Rain = 0
KDR1 081950Z 24001KT 03/M03 A3023 RMK A01 T00331029  RH  064%=      5-min Rain = 0
KDR1 081955Z 23001KT 04/M03 A3023 RMK A01 T00361026  RH  064%=      5-min Rain = 0
KDR1 082000Z 22002KT 04/M03 A3023 RMK A01 T00411026  RH  062%=      5-min Rain = 0
KDR1 082005Z 20002KT 04/M03 A3023 RMK A01 T00401026  RH  063%=      5-min Rain = 0
KDR1 082010Z 17003KT 05/M02 A3022 RMK A01 T00451024  RH  061%=      5-min Rain = 0
KDR1 082015Z 18003KT 04/M03 A3022 RMK A01 T00421026  RH  062%=      5-min Rain = 0
KDR1 082020Z 19002KT 04/M03 A3022 RMK A01 T00411026  RH  062%=      5-min Rain = 0
KDR1 082025Z 19003KT 04/M03 A3022 RMK A01 T00391026  RH  063%=      5-min Rain = 0
KDR1 082030Z 18003KT 04/M02 A3021 RMK A01 T00441024  RH  062%=      5-min Rain = 0
KDR1 082035Z 18003KT 04/M02 A3021 RMK A01 T00411023  RH  063%=      5-min Rain = 0
KDR1 082040Z 18003KT 04/M02 A3021 RMK A01 T00421023  RH  063%=      5-min Rain = 0
KDR1 082045Z 20003KT 04/M02 A3021 RMK A01 T00411024  RH  063%=      5-min Rain = 0
KDR1 082050Z 20003KT 04/M02 A3021 RMK A01 T00391022  RH  065%=      5-min Rain = 0
KDR1 082055Z 19003KT 04/M02 A3021 RMK A01 T00411021  RH  065%=      5-min Rain = 0
KDR1 082100Z 20002KT 04/M02 A3021 RMK A01 T00421021  RH  064%=      5-min Rain = 0
KDR1 082105Z 21003KT 04/M02 A3021 RMK A01 T00431021  RH  064%=      5-min Rain = 0
KDR1 082110Z 21003KT 04/M02 A3021 RMK A01 T00391020  RH  066%=      5-min Rain = 0
KDR1 082115Z 19004KT 04/M02 A3021 RMK A01 T00391017  RH  067%=      5-min Rain = 0
KDR1 082120Z 20004KT 04/M02 A3021 RMK A01 T00391019  RH  066%=      5-min Rain = 0
KDR1 082125Z 18003KT 04/M02 A3021 RMK A01 T00421019  RH  065%=      5-min Rain = 0
KDR1 082130Z 19005KT 04/M02 A3021 RMK A01 T00401018  RH  066%=      5-min Rain = 0
KDR1 082135Z 19005KT 04/M02 A302 RMK A01 T00381018  RH  067%=      5-min Rain = 0
KDR1 082140Z 19004KT 04/M02 A302 RMK A01 T00401018  RH  067%=      5-min Rain = 0
KDR1 082145Z 18004KT 04/M02 A302 RMK A01 T00411019  RH  065%=      5-min Rain = 0
KDR1 082150Z 18004KT 04/M02 A302 RMK A01 T00421018  RH  065%=      5-min Rain = 0
KDR1 082155Z 18006KT 04/M02 A302 RMK A01 T00411019  RH  065%=      5-min Rain = 0
KDR1 082200Z 17007KT 04/M02 A302 RMK A01 T00381020  RH  066%=      5-min Rain = 0
KDR1 082205Z 18006KT 04/M02 A302 RMK A01 T00371019  RH  067%=      5-min Rain = 0
KDR1 082210Z 18006KT 03/M02 A302 RMK A01 T00341020  RH  068%=      5-min Rain = 0
KDR1 082215Z 19006KT 03/M02 A302 RMK A01 T00331021  RH  068%=      5-min Rain = 0
KDR1 082220Z 18006KT 03/M02 A302 RMK A01 T00331020  RH  069%=      5-min Rain = 0
KDR1 082225Z 18006KT 03/M02 A302 RMK A01 T00321021  RH  069%=      5-min Rain = 0
KDR1 082230Z 18005KT 03/M02 A3019 RMK A01 T00331021  RH  068%=      5-min Rain = 0
KDR1 082235Z 18006KT 03/M02 A3019 RMK A01 T00321021  RH  069%=      5-min Rain = 0
KDR1 082240Z 18006KT 03/M02 A3019 RMK A01 T00311022  RH  069%=      5-min Rain = 0
KDR1 082245Z 18007KT 03/M02 A302 RMK A01 T00281023  RH  070%=      5-min Rain = 0
KDR1 082250Z 18006KT 03/M02 A302 RMK A01 T00281022  RH  070%=      5-min Rain = 0
KDR1 082255Z 17005KT 03/M02 A302 RMK A01 T00281021  RH  070%=      5-min Rain = 0
KDR1 082300Z 18006KT 03/M02 A302 RMK A01 T00271021  RH  071%=      5-min Rain = 0
KDR1 082305Z 17005KT 03/M02 A302 RMK A01 T00261021  RH  072%=      5-min Rain = 0
KDR1 082310Z 17005KT 03/M02 A302 RMK A01 T00251021  RH  072%=      5-min Rain = 0
KDR1 082315Z 16005KT 02/M02 A302 RMK A01 T00241021  RH  073%=      5-min Rain = 0
KDR1 082320Z 16005KT 02/M02 A302 RMK A01 T00221022  RH  073%=      5-min Rain = 0
KDR1 082325Z 14005KT 02/M02 A302 RMK A01 T00171024  RH  075%=      5-min Rain = 0
KDR1 082330Z 14006KT 01/M03 A302 RMK A01 T00111025  RH  077%=      5-min Rain = 0
KDR1 082335Z 14006KT 01/M03 A302 RMK A01 T00051027  RH  080%=      5-min Rain = 0
KDR1 082340Z 14006KT 00/03 A302 RMK A01 T00-00-28  RH  082%=      5-min Rain = 0
KDR1 082345Z 14006KT M00/M03 A3021 RMK A01 T10041029  RH  084%=      5-min Rain = 0
KDR1 082350Z 14006KT M01/M03 A3021 RMK A01 T10081031  RH  085%=      5-min Rain = 0
KDR1 082355Z 14005KT M01/M03 A3021 RMK A01 T10111033  RH  086%=      5-min Rain = 0
KDR1 090000Z 14005KT M02/M04 A3021 RMK A01 T10151035  RH  087%=      5-min Rain = 0
KDR1 090005Z 14005KT M02/M04 A3021 RMK A01 T10171036  RH  088%=      5-min Rain = 0
KDR1 090010Z 14006KT M02/M04 A3021 RMK A01 T10191036  RH  088%=      5-min Rain = 0
KDR1 090015Z 14005KT M02/M04 A3021 RMK A01 T10201037  RH  089%=      5-min Rain = 0
KDR1 090020Z 14005KT M02/M04 A3021 RMK A01 T10211038  RH  089%=      5-min Rain = 0
KDR1 090025Z 14006KT M02/M04 A3021 RMK A01 T10231039  RH  089%=      5-min Rain = 0
KDR1 090030Z 14006KT M02/M04 A3021 RMK A01 T10241039  RH  090%=      5-min Rain = 0
KDR1 090035Z 14007KT M02/M04 A3021 RMK A01 T10221036  RH  090%=      5-min Rain = 0
KDR1 090040Z 15007KT M02/M03 A3021 RMK A01 T10191033  RH  090%=      5-min Rain = 0
KDR1 090045Z 15006KT M02/M03 A3021 RMK A01 T10191034  RH  090%=      5-min Rain = 0
KDR1 090050Z 15007KT M02/M04 A3021 RMK A01 T10211036  RH  090%=      5-min Rain = 0
KDR1 090055Z 15006KT M02/M04 A3021 RMK A01 T10221036  RH  090%=      5-min Rain = 0
KDR1 090100Z 15006KT M02/M04 A3021 RMK A01 T10231038  RH  090%=      5-min Rain = 0
KDR1 090105Z 16006KT M02/M04 A3022 RMK A01 T10221036  RH  091%=      5-min Rain = 0
KDR1 090110Z 16007KT M02/M04 A3022 RMK A01 T10211035  RH  091%=      5-min Rain = 0
KDR1 090115Z 17006KT M02/M04 A3022 RMK A01 T10221036  RH  091%=      5-min Rain = 0
KDR1 090120Z 17006KT M02/M04 A3022 RMK A01 T10231037  RH  091%=      5-min Rain = 0
KDR1 090125Z 17007KT M02/M04 A3023 RMK A01 T10231037  RH  091%=      5-min Rain = 0
KDR1 090130Z 17007KT M02/M04 A3023 RMK A01 T10231036  RH  091%=      5-min Rain = 0
KDR1 090135Z 17007KT M02/M04 A3023 RMK A01 T10231036  RH  091%=      5-min Rain = 0
KDR1 090140Z 18008KT M02/M04 A3023 RMK A01 T10241037  RH  091%=      5-min Rain = 0
KDR1 090145Z 18008KT M02/M04 A3023 RMK A01 T10221035  RH  091%=      5-min Rain = 0
KDR1 090150Z 19008KT M02/M03 A3024 RMK A01 T10191032  RH  091%=      5-min Rain = 0
KDR1 090155Z 19009KT M02/M03 A3024 RMK A01 T10181032  RH  091%=      5-min Rain = 0
KDR1 090200Z 19010KT M02/M03 A3024 RMK A01 T10181031  RH  091%=      5-min Rain = 0
KDR1 090205Z 19009KT M02/M03 A3024 RMK A01 T10191033  RH  091%=      5-min Rain = 0
KDR1 090210Z 19009KT M02/M03 A3024 RMK A01 T10201033  RH  092%=      5-min Rain = 0
KDR1 090215Z 19009KT M02/M03 A3024 RMK A01 T10211033  RH  092%=      5-min Rain = 0
KDR1 090220Z 19009KT M02/M03 A3024 RMK A01 T10201032  RH  092%=      5-min Rain = 0
KDR1 090225Z 19010KT M02/M03 A3025 RMK A01 T10201032  RH  092%=      5-min Rain = 0
KDR1 090230Z 20010KT M02/M03 A3025 RMK A01 T10211033  RH  092%=      5-min Rain = 0
KDR1 090235Z 20010KT M02/M04 A3025 RMK A01 T10231035  RH  092%=      5-min Rain = 0
KDR1 090240Z 20009KT M02/M04 A3025 RMK A01 T10241035  RH  093%=      5-min Rain = 0
KDR1 090245Z 20008KT M03/M04 A3025 RMK A01 T10261037  RH  093%=      5-min Rain = 0
KDR1 090250Z 20008KT M03/M04 A3024 RMK A01 T10281038  RH  093%=      5-min Rain = 0
KDR1 090255Z 20009KT M03/M04 A3025 RMK A01 T10281038  RH  093%=      5-min Rain = 0
KDR1 090300Z 21009KT M03/M04 A3025 RMK A01 T10281038  RH  093%=      5-min Rain = 0
KDR1 090305Z 21008KT M03/M04 A3025 RMK A01 T10261036  RH  094%=      5-min Rain = 0
KDR1 090310Z 22007KT M03/M04 A3025 RMK A01 T10271037  RH  093%=      5-min Rain = 0
KDR1 090315Z 23009KT M03/M04 A3025 RMK A01 T10291040  RH  093%=      5-min Rain = 0
KDR1 090320Z 22009KT M03/M04 A3025 RMK A01 T10291039  RH  093%=      5-min Rain = 0
KDR1 090325Z 22009KT M03/M04 A3025 RMK A01 T10291039  RH  093%=      5-min Rain = 0
KDR1 090330Z 22008KT M03/M04 A3025 RMK A01 T10291039  RH  093%=      5-min Rain = 0
KDR1 090335Z 22008KT M03/M04 A3025 RMK A01 T10281039  RH  093%=      5-min Rain = 0
KDR1 090340Z 22008KT M03/M04 A3025 RMK A01 T10281039  RH  093%=      5-min Rain = 0
KDR1 090345Z 22008KT M03/M04 A3025 RMK A01 T10281039  RH  093%=      5-min Rain = 0
KDR1 090350Z 22007KT M03/M04 A3025 RMK A01 T10281039  RH  092%=      5-min Rain = 0
KDR1 090355Z 22007KT M03/M04 A3025 RMK A01 T10291040  RH  092%=      5-min Rain = 0
KDR1 090400Z 22006KT M03/M04 A3025 RMK A01 T10271038  RH  093%=      5-min Rain = 0
KDR1 090405Z 22007KT M03/M04 A3025 RMK A01 T10281039  RH  092%=      5-min Rain = 0
KDR1 090410Z 22006KT M03/M04 A3025 RMK A01 T10281039  RH  093%=      5-min Rain = 0
KDR1 090415Z 22006KT M03/M04 A3025 RMK A01 T10291040  RH  093%=      5-min Rain = 0
KDR1 090420Z 22006KT M03/M04 A3025 RMK A01 T10301041  RH  093%=      5-min Rain = 0
KDR1 090425Z 23005KT M03/M04 A3025 RMK A01 T10311042  RH  093%=      5-min Rain = 0
KDR1 090430Z 21004KT M03/M04 A3025 RMK A01 T10321043  RH  093%=      5-min Rain = 0
KDR1 090435Z 21004KT M04/M05 A3025 RMK A01 T10371048  RH  092%=      5-min Rain = 0
KDR1 090440Z 22004KT M04/M05 A3026 RMK A01 T10381049  RH  092%=      5-min Rain = 0
KDR1 090445Z 22004KT M04/M05 A3026 RMK A01 T10361047  RH  093%=      5-min Rain = 0
KDR1 090450Z 22004KT M03/M05 A3026 RMK A01 T10341045  RH  093%=      5-min Rain = 0
KDR1 090455Z 21004KT M03/M04 A3026 RMK A01 T10321042  RH  093%=      5-min Rain = 0
KDR1 090500Z 22006KT M03/M04 A3026 RMK A01 T10321042  RH  093%=      5-min Rain = 0
KDR1 090505Z 22006KT M03/M04 A3026 RMK A01 T10311041  RH  093%=      5-min Rain = 0
KDR1 090510Z 23007KT M03/M04 A3026 RMK A01 T10301041  RH  092%=      5-min Rain = 0
KDR1 090515Z 23007KT M03/M04 A3026 RMK A01 T10291041  RH  092%=      5-min Rain = 0
KDR1 090520Z 22007KT M03/M04 A3026 RMK A01 T10301043  RH  091%=      5-min Rain = 0
KDR1 090525Z 22008KT M03/M04 A3026 RMK A01 T10291043  RH  091%=      5-min Rain = 0
KDR1 090530Z 22008KT M03/M04 A3026 RMK A01 T10291043  RH  091%=      5-min Rain = 0
KDR1 090535Z 22008KT M03/M04 A3026 RMK A01 T10291043  RH  090%=      5-min Rain = 0
KDR1 090540Z 23008KT M03/M04 A3026 RMK A01 T10301044  RH  090%=      5-min Rain = 0
KDR1 090545Z 22007KT M03/M05 A3026 RMK A01 T10311045  RH  090%=      5-min Rain = 0
KDR1 090550Z 22007KT M03/M05 A3026 RMK A01 T10311046  RH  090%=      5-min Rain = 0
KDR1 090555Z 22006KT M03/M05 A3026 RMK A01 T10311046  RH  090%=      5-min Rain = 0

Page generated in 0.0156 seconds.